DLH493 CYVR-EDDF
Flight info
| Callsign | DLH493 |
|---|---|
| Flight time | N/A |
| Altitude | |
| Route | |
| Aircraft | A346 |
Departure
| Time | N/A |
|---|---|
| Airport | Vancouver International Airport (CYVR) |
Arrival
| Time | 2026-05-04 09:23 |
|---|---|
| Airport | Frankfurt Main Airport (EDDF) |
| Time | Latitude | Longitude | Altitude | Speed | Heading |
|---|---|---|---|---|---|
| 2026-05-04 09:22 | 50.04384 | 8.60234 | 618 ft | 153 kts | 249° |
| 2026-05-04 09:22 | 50.04017 | 8.58690 | 435 ft | 150 kts | 249° |
| 2026-05-04 09:23 | 50.03673 | 8.57254 | 355 ft | 120 kts | 249° |
| 2026-05-04 09:23 | 50.03458 | 8.56357 | 351 ft | 55 kts | 249° |
| 2026-05-04 09:23 | 50.03368 | 8.55982 | 348 ft | 34 kts | 249° |
| 2026-05-04 09:23 | 50.03310 | 8.55618 | 345 ft | 35 kts | 269° |
| 2026-05-04 09:25 | 50.03367 | 8.54976 | 346 ft | 8 kts | 257° |
| 2026-05-04 09:25 | 50.03342 | 8.54849 | 345 ft | 14 kts | 250° |
| 2026-05-04 09:26 | 50.03304 | 8.54687 | 344 ft | 16 kts | 250° |
| 2026-05-04 09:26 | 50.03286 | 8.54525 | 342 ft | 16 kts | 296° |
| 2026-05-04 09:26 | 50.03319 | 8.54480 | 342 ft | 0 kts | 336° |
| 2026-05-04 09:27 | 50.03319 | 8.54481 | 342 ft | 0 kts | 336° |
| 2026-05-04 09:27 | 50.03333 | 8.54471 | 342 ft | 11 kts | 337° |
| 2026-05-04 09:27 | 50.03431 | 8.54412 | 344 ft | 17 kts | 340° |
| 2026-05-04 09:27 | 50.03548 | 8.54345 | 346 ft | 14 kts | 340° |
| 2026-05-04 09:28 | 50.03641 | 8.54333 | 348 ft | 12 kts | 36° |
| 2026-05-04 09:28 | 50.03690 | 8.54453 | 349 ft | 14 kts | 68° |
| 2026-05-04 09:28 | 50.03728 | 8.54609 | 350 ft | 16 kts | 70° |
| 2026-05-04 09:28 | 50.03769 | 8.54780 | 353 ft | 16 kts | 70° |
| 2026-05-04 09:29 | 50.03810 | 8.54952 | 354 ft | 17 kts | 70° |
| 2026-05-04 09:29 | 50.03853 | 8.55132 | 358 ft | 17 kts | 70° |
| 2026-05-04 09:29 | 50.03896 | 8.55315 | 359 ft | 18 kts | 70° |
| 2026-05-04 09:29 | 50.03941 | 8.55499 | 360 ft | 20 kts | 70° |
| 2026-05-04 09:30 | 50.03991 | 8.55710 | 360 ft | 18 kts | 70° |
| 2026-05-04 09:30 | 50.04028 | 8.55866 | 360 ft | 13 kts | 70° |
| 2026-05-04 09:30 | 50.04088 | 8.55952 | 363 ft | 12 kts | 2° |
| 2026-05-04 09:30 | 50.04174 | 8.55925 | 365 ft | 12 kts | 349° |
| 2026-05-04 09:31 | 50.04257 | 8.55949 | 368 ft | 12 kts | 8° |
| 2026-05-04 09:31 | 50.04341 | 8.55929 | 371 ft | 12 kts | 342° |
| 2026-05-04 09:31 | 50.04432 | 8.55917 | 373 ft | 14 kts | 9° |
| 2026-05-04 09:31 | 50.04498 | 8.55943 | 375 ft | 9 kts | 17° |
| 2026-05-04 09:32 | 50.04557 | 8.56007 | 375 ft | 12 kts | 57° |
| 2026-05-04 09:32 | 50.04596 | 8.56140 | 375 ft | 14 kts | 70° |